createdAt,value
2019-04-04T00:00:43.065Z,99573.68
2019-04-04T00:05:45.649Z,99560.44
2019-04-04T00:10:49.074Z,99556.61
2019-04-04T00:15:52.076Z,99551.87
2019-04-04T00:20:55.724Z,99545.45
2019-04-04T00:25:59.100Z,99543.83
2019-04-04T00:31:02.729Z,99538.45
2019-04-04T00:36:06.221Z,99530.04
2019-04-04T00:41:09.227Z,99531.89
2019-04-04T00:46:12.160Z,99526.63
2019-04-04T00:51:14.503Z,99531.49
2019-04-04T00:56:18.087Z,99573.50
2019-04-04T01:01:21.216Z,99600.31
2019-04-04T01:06:24.161Z,99675.87
2019-04-04T01:11:27.786Z,99651.33
2019-04-04T01:16:33.407Z,99638.94
2019-04-04T01:21:35.545Z,99618.48
2019-04-04T01:26:38.850Z,99634.98
2019-04-04T01:31:44.079Z,99620.55
2019-04-04T01:36:47.143Z,99632.20
2019-04-04T01:41:50.425Z,99622.39
2019-04-04T01:46:53.635Z,99611.14
2019-04-04T01:51:57.884Z,99602.30
2019-04-04T01:57:00.727Z,99596.56
2019-04-04T02:02:03.816Z,99608.84
2019-04-04T02:07:06.875Z,99628.00
2019-04-04T02:12:10.078Z,99604.23
2019-04-04T02:17:13.599Z,99589.16
2019-04-04T02:22:16.501Z,99581.40
2019-04-04T02:27:20.036Z,99588.98
2019-04-04T02:32:26.076Z,99554.23
2019-04-04T02:37:28.030Z,99541.86
2019-04-04T02:42:31.192Z,99521.16
2019-04-04T02:47:36.459Z,99554.33
2019-04-04T02:52:39.641Z,99551.53
2019-04-04T02:57:42.886Z,99579.64
2019-04-04T03:02:45.784Z,99570.27
2019-04-04T03:07:48.979Z,99544.11
2019-04-04T03:12:51.484Z,99546.69
2019-04-04T03:17:54.987Z,99542.64
2019-04-04T03:23:00.589Z,99528.80
2019-04-04T03:28:04.935Z,99528.64
2019-04-04T03:33:08.489Z,99495.11
2019-04-04T03:38:13.486Z,99499.44
2019-04-04T03:43:16.837Z,99484.41
2019-04-04T03:48:20.292Z,99492.23
2019-04-04T03:53:24.088Z,99521.90
2019-04-04T03:58:27.891Z,99513.03
2019-04-04T04:03:31.075Z,99491.42
2019-04-04T04:08:34.279Z,99529.67
2019-04-04T04:13:37.577Z,99517.92
2019-04-04T04:18:41.084Z,99518.45
2019-04-04T04:23:44.705Z,99526.85
2019-04-04T04:28:52.200Z,99544.39
2019-04-04T04:33:53.140Z,99547.80
2019-04-04T04:38:59.895Z,99561.02
2019-04-04T04:44:05.099Z,99577.91
2019-04-04T04:49:06.787Z,99594.09
2019-04-04T04:54:09.710Z,99589.00
2019-04-04T04:59:13.231Z,99581.90
2019-04-04T05:04:17.552Z,99587.10
2019-04-04T05:09:20.105Z,99565.21
2019-04-04T05:14:23.368Z,99553.88
2019-04-04T05:19:26.373Z,99550.31
2019-04-04T05:24:29.894Z,99555.88
2019-04-04T05:29:33.072Z,99557.75
2019-04-04T05:34:36.395Z,99591.13
2019-04-04T05:39:41.821Z,99616.00
2019-04-04T05:44:45.206Z,99629.25
2019-04-04T05:49:48.901Z,99605.23
2019-04-04T05:54:52.492Z,99584.02
2019-04-04T05:59:57.221Z,99569.00
2019-04-04T06:05:00.510Z,99594.05
2019-04-04T06:10:04.465Z,99599.05
2019-04-04T06:15:07.608Z,99622.94
2019-04-04T06:20:10.114Z,99636.61
2019-04-04T06:25:13.038Z,99632.14
2019-04-04T06:30:16.145Z,99637.34
2019-04-04T06:35:19.647Z,99646.53
2019-04-04T06:40:22.653Z,99643.77
2019-04-04T06:45:25.526Z,99631.20
2019-04-04T06:50:28.432Z,99639.26
2019-04-04T06:55:31.459Z,99645.94
2019-04-04T07:00:34.897Z,99626.76
2019-04-04T07:05:38.931Z,99623.26
2019-04-04T07:10:42.171Z,99647.32
2019-04-04T07:15:46.961Z,99633.84
2019-04-04T07:20:50.489Z,99636.19
2019-04-04T07:25:56.486Z,99633.63
2019-04-04T07:31:01.734Z,99643.30
2019-04-04T07:36:05.226Z,99635.64
2019-04-04T07:41:08.970Z,99633.42
2019-04-04T07:46:16.847Z,99626.98
2019-04-04T07:51:17.093Z,99637.73
2019-04-04T07:56:20.424Z,99624.80
2019-04-04T08:01:23.660Z,99626.05
2019-04-04T08:06:26.966Z,99637.80
2019-04-04T08:11:29.964Z,99642.16
2019-04-04T08:16:33.271Z,99655.06
2019-04-04T08:21:36.171Z,99663.53
2019-04-04T08:26:39.079Z,99652.98
2019-04-04T08:31:42.750Z,99656.66
2019-04-04T08:36:46.305Z,99663.16
2019-04-04T08:41:52.256Z,99654.20
2019-04-04T08:46:55.790Z,99663.88
2019-04-04T08:51:59.092Z,99668.61
2019-04-04T08:57:02.108Z,99661.27
2019-04-04T09:02:05.436Z,99663.51
2019-04-04T09:07:08.929Z,99642.98
2019-04-04T09:12:12.355Z,99636.46
2019-04-04T09:17:15.751Z,99622.68
2019-04-04T09:22:18.985Z,99622.37
2019-04-04T09:27:22.018Z,99627.78
2019-04-04T09:32:24.598Z,99650.48
2019-04-04T09:37:28.462Z,99645.66
2019-04-04T09:42:32.715Z,99636.91
2019-04-04T09:47:36.014Z,99639.79
2019-04-04T09:52:39.292Z,99663.51
2019-04-04T09:57:42.262Z,99669.62
2019-04-04T10:02:45.269Z,99666.44
2019-04-04T10:07:48.839Z,99664.28
2019-04-04T10:12:52.242Z,99676.12
2019-04-04T10:17:55.541Z,99689.91
2019-04-04T10:22:59.045Z,99695.34
2019-04-04T10:28:02.359Z,99694.94
2019-04-04T10:33:05.883Z,99699.91
2019-04-04T10:38:09.085Z,99694.72
2019-04-04T10:43:12.088Z,99686.53
2019-04-04T10:48:15.306Z,99680.22
2019-04-04T10:53:18.873Z,99673.08
2019-04-04T10:58:22.415Z,99667.16
2019-04-04T11:03:25.979Z,99659.63
2019-04-04T11:08:29.569Z,99682.86
2019-04-04T11:13:34.031Z,99672.03
2019-04-04T11:18:37.064Z,99671.63
2019-04-04T11:23:39.926Z,99671.55
2019-04-04T11:28:43.480Z,99679.36
2019-04-04T11:33:46.750Z,99686.20
2019-04-04T11:38:49.579Z,99688.45
2019-04-04T11:43:52.761Z,99682.00
2019-04-04T11:48:55.996Z,99686.47
2019-04-04T11:53:58.558Z,99691.84
2019-04-04T11:59:01.784Z,99692.02
2019-04-04T12:04:05.222Z,99682.69
2019-04-04T12:09:08.448Z,99695.15
2019-04-04T12:14:11.459Z,99689.20
2019-04-04T12:19:14.728Z,99675.88
2019-04-04T12:24:17.836Z,99675.87
2019-04-04T12:29:21.070Z,99663.54
2019-04-04T12:34:23.808Z,99682.22
2019-04-04T12:39:27.097Z,99688.33
2019-04-04T12:44:32.457Z,99694.02
2019-04-04T12:49:35.578Z,99693.30
2019-04-04T12:54:38.845Z,99689.41
2019-04-04T12:59:42.024Z,99694.97
2019-04-04T13:04:45.540Z,99711.42
2019-04-04T13:09:49.221Z,99719.23
2019-04-04T13:14:52.191Z,99714.72
2019-04-04T13:19:55.095Z,99714.79
2019-04-04T13:24:57.963Z,99719.61
2019-04-04T13:30:01.200Z,99715.83
2019-04-04T13:35:05.732Z,99715.59
2019-04-04T13:40:09.265Z,99717.66
2019-04-04T13:45:12.579Z,99724.49
2019-04-04T13:50:19.673Z,99721.92
2019-04-04T13:55:22.004Z,99702.50
2019-04-04T14:00:25.513Z,99688.78
2019-04-04T14:05:29.160Z,99692.38
2019-04-04T14:10:32.427Z,99688.97
2019-04-04T14:15:35.666Z,99684.02
2019-04-04T14:20:39.048Z,99680.71
2019-04-04T14:25:42.291Z,99688.66
2019-04-04T14:30:45.904Z,99691.23
2019-04-04T14:35:49.380Z,99703.84
2019-04-04T14:40:52.294Z,99703.59
2019-04-04T14:45:55.785Z,99702.31
2019-04-04T14:50:58.943Z,99705.45
2019-04-04T14:56:02.012Z,99714.05
2019-04-04T15:01:04.979Z,99703.73
2019-04-04T15:06:08.598Z,99704.56
2019-04-04T15:11:23.546Z,99700.48
2019-04-04T15:16:17.578Z,99690.95
2019-04-04T15:21:20.924Z,99687.33
2019-04-04T15:26:24.061Z,99687.08
2019-04-04T15:31:26.957Z,99684.38
2019-04-04T15:36:29.920Z,99685.56
2019-04-04T15:41:37.103Z,99694.63
2019-04-04T15:46:37.690Z,99696.77
2019-04-04T15:51:40.907Z,99707.88
2019-04-04T15:56:44.162Z,99702.19
2019-04-04T16:01:47.431Z,99700.61
2019-04-04T16:06:50.028Z,99710.00
2019-04-04T16:11:53.573Z,99712.46
2019-04-04T16:16:56.965Z,99714.50
2019-04-04T16:22:00.276Z,99717.84
2019-04-04T16:27:03.678Z,99714.50
2019-04-04T16:32:06.999Z,99714.92
2019-04-04T16:37:10.206Z,99707.72
2019-04-04T16:42:13.441Z,99703.81
2019-04-04T16:47:16.629Z,99706.23
2019-04-04T16:52:19.504Z,99706.11
2019-04-04T16:57:23.167Z,99700.13
2019-04-04T17:02:27.554Z,99709.36
2019-04-04T17:07:30.511Z,99705.26
2019-04-04T17:12:33.839Z,99725.70
2019-04-04T17:17:37.126Z,99724.28
2019-04-04T17:22:40.339Z,99739.07
2019-04-04T17:27:43.848Z,99740.31
2019-04-04T17:32:48.872Z,99746.27
2019-04-04T17:37:54.122Z,99747.78
2019-04-04T17:42:58.838Z,99758.55
2019-04-04T17:48:02.667Z,99763.63
2019-04-04T17:53:06.983Z,99767.12
2019-04-04T17:58:12.838Z,99770.41
2019-04-04T18:03:16.416Z,99768.56
2019-04-04T18:08:20.446Z,99779.30
2019-04-04T18:13:24.300Z,99792.27
2019-04-04T18:18:27.477Z,99817.00
2019-04-04T18:23:33.606Z,99832.84
2019-04-04T18:28:41.331Z,99852.77
2019-04-04T18:33:47.291Z,99856.06
2019-04-04T18:38:53.848Z,99869.66
2019-04-04T18:43:56.889Z,99882.40
2019-04-04T18:49:00.467Z,99882.93
2019-04-04T18:54:09.675Z,99888.78
2019-04-04T18:59:12.307Z,99886.74
2019-04-04T19:04:16.241Z,99885.23
2019-04-04T19:09:27.066Z,99901.70
2019-04-04T19:14:30.904Z,99901.58
2019-04-04T19:19:34.168Z,99901.00
2019-04-04T19:24:58.550Z,99878.97
2019-04-04T19:30:01.950Z,99903.55
2019-04-04T19:35:08.060Z,99908.72
2019-04-04T19:40:13.939Z,99913.48
2019-04-04T19:45:17.080Z,99924.20
2019-04-04T19:50:20.375Z,99921.69
2019-04-04T19:55:23.446Z,99925.73
2019-04-04T20:00:26.872Z,99916.73
2019-04-04T20:05:31.521Z,99925.06
2019-04-04T20:10:35.337Z,99926.66
2019-04-04T20:15:46.099Z,99930.70
2019-04-04T20:20:50.291Z,99930.50
2019-04-04T20:25:53.647Z,99926.68
2019-04-04T20:30:57.037Z,99926.08
2019-04-04T20:36:00.404Z,99919.68
2019-04-04T20:41:03.026Z,99917.63
2019-04-04T20:46:06.799Z,99915.45
2019-04-04T20:51:11.729Z,99920.62
2019-04-04T20:56:15.029Z,99927.69
2019-04-04T21:01:18.338Z,99932.77
2019-04-04T21:06:21.403Z,99931.40
2019-04-04T21:11:24.291Z,99927.19
2019-04-04T21:16:27.781Z,99924.66
2019-04-04T21:21:31.041Z,99927.94
2019-04-04T21:26:34.393Z,99941.25
2019-04-04T21:31:37.706Z,99937.32
2019-04-04T21:36:41.021Z,99938.77
2019-04-04T21:41:44.025Z,99934.41
2019-04-04T21:46:47.553Z,99934.77
2019-04-04T21:51:50.762Z,99936.52
2019-04-04T21:56:54.279Z,99951.77
2019-04-04T22:01:57.926Z,99940.41
2019-04-04T22:07:01.221Z,99938.72
2019-04-04T22:12:04.638Z,99929.14
2019-04-04T22:17:07.240Z,99934.14
2019-04-04T22:22:10.456Z,99936.26
2019-04-04T22:27:14.081Z,99933.78
2019-04-04T22:32:17.686Z,99934.17
2019-04-04T22:37:20.378Z,99930.01
2019-04-04T22:42:23.581Z,99928.71
2019-04-04T22:47:26.900Z,99929.50
2019-04-04T22:52:30.430Z,99918.95
2019-04-04T22:57:33.922Z,99920.65
2019-04-04T23:02:36.910Z,99921.52
2019-04-04T23:07:40.564Z,99925.63
2019-04-04T23:12:43.769Z,99929.97
2019-04-04T23:17:47.437Z,99927.77
2019-04-04T23:22:52.934Z,99930.48
2019-04-04T23:27:55.560Z,99938.94
2019-04-04T23:32:58.781Z,99940.58
2019-04-04T23:38:02.069Z,99937.52
2019-04-04T23:43:05.034Z,99954.58
2019-04-04T23:48:08.067Z,99948.92
2019-04-04T23:53:11.391Z,99962.16
2019-04-04T23:58:14.708Z,99988.68
